createdAt,value
2017-07-24T03:31:32.976Z,53.90
2017-07-24T03:34:00.648Z,54.10
2017-07-24T03:36:28.380Z,54.50
2017-07-24T03:38:56.054Z,55.40
2017-07-24T03:41:23.692Z,56.20
2017-07-24T03:43:52.492Z,56.90
2017-07-24T03:46:20.170Z,56.90
2017-07-24T03:48:48.644Z,56.70
2017-07-24T03:51:16.393Z,56.50
2017-07-24T03:53:44.059Z,55.80
2017-07-24T03:56:11.749Z,55.80
2017-07-24T03:58:39.411Z,55.40
2017-07-24T04:01:07.553Z,55.80
2017-07-24T04:03:35.981Z,56.80
2017-07-24T04:06:03.647Z,56.70
2017-07-24T04:08:31.342Z,56.50
2017-07-24T04:10:59.796Z,55.90
2017-07-24T04:13:27.464Z,55.90
2017-07-24T04:15:55.129Z,55.50
2017-07-24T04:18:22.780Z,55.80
2017-07-24T04:20:50.432Z,56.30
2017-07-24T04:23:18.536Z,56.70
2017-07-24T04:25:46.194Z,56.80
2017-07-24T04:28:14.659Z,56.80
2017-07-24T04:30:43.119Z,56.80
2017-07-24T04:33:10.778Z,56.80
2017-07-24T04:35:38.441Z,56.80
2017-07-24T04:38:06.088Z,56.40
2017-07-24T04:40:33.756Z,55.80
2017-07-24T04:43:01.413Z,55.60
2017-07-24T04:45:29.068Z,56.30
2017-07-24T04:47:56.797Z,57.10
2017-07-24T04:50:25.220Z,58.60
2017-07-24T04:52:52.904Z,58.60
2017-07-24T04:55:20.591Z,59.10
2017-07-24T04:57:48.590Z,59.40
2017-07-24T05:00:16.269Z,60.20
2017-07-24T05:02:43.962Z,60.90
2017-07-24T05:05:12.231Z,60.60
2017-07-24T05:07:39.906Z,60.20
2017-07-24T05:10:07.595Z,59.60
2017-07-24T05:12:36.541Z,59.20
2017-07-24T05:15:04.328Z,59.10
2017-07-24T05:17:32.213Z,58.80
2017-07-24T05:20:01.173Z,58.60
2017-07-24T05:22:28.909Z,58.50
2017-07-24T05:24:56.674Z,58.70
2017-07-24T05:27:24.673Z,58.40
2017-07-24T05:29:52.451Z,58.40
2017-07-24T05:32:20.099Z,58.50
2017-07-24T05:34:48.123Z,58.60
2017-07-24T05:37:15.786Z,58.70
2017-07-24T05:39:43.446Z,58.60
2017-07-24T05:42:11.501Z,58.70
2017-07-24T05:44:39.908Z,58.60
2017-07-24T05:47:07.556Z,58.50
2017-07-24T05:49:35.210Z,58.80
2017-07-24T05:52:03.624Z,58.90
2017-07-24T05:54:31.290Z,58.80
2017-07-24T05:56:58.973Z,59.10
2017-07-24T05:59:26.818Z,58.90
2017-07-24T06:01:54.470Z,59.00
2017-07-24T06:04:22.521Z,59.10
2017-07-24T06:06:50.169Z,58.60
2017-07-24T06:09:18.583Z,58.20
2017-07-24T06:11:46.245Z,58.00
2017-07-24T06:14:13.939Z,57.90
2017-07-24T06:16:41.616Z,58.20
2017-07-24T06:19:09.285Z,58.40
2017-07-24T06:21:37.263Z,57.70
2017-07-24T06:24:05.674Z,57.90
2017-07-24T06:26:33.318Z,58.20
2017-07-24T06:29:00.977Z,58.30
2017-07-24T06:31:29.401Z,58.40
2017-07-24T06:33:57.172Z,58.40
2017-07-24T06:36:24.986Z,58.40
2017-07-24T06:38:53.419Z,57.50
2017-07-24T06:41:21.147Z,57.50
2017-07-24T06:43:49.185Z,56.80
2017-07-24T06:46:17.616Z,57.50
2017-07-24T06:48:45.296Z,56.90
2017-07-24T06:51:12.943Z,57.30
2017-07-24T06:53:40.600Z,56.50
2017-07-24T06:56:08.276Z,56.80
2017-07-24T06:58:35.926Z,56.10
2017-07-24T07:01:03.648Z,55.80
2017-07-24T07:03:31.295Z,56.60
2017-07-24T07:05:59.049Z,56.40
2017-07-24T07:08:26.721Z,56.00
2017-07-24T07:10:54.402Z,56.40
2017-07-24T07:13:22.080Z,56.30
2017-07-24T07:15:49.736Z,57.00
2017-07-24T07:18:17.393Z,56.70
2017-07-24T07:20:45.053Z,57.10
2017-07-24T07:23:13.124Z,57.30
2017-07-24T07:25:40.782Z,57.50
2017-07-24T07:28:08.416Z,58.00
2017-07-24T07:30:36.087Z,58.20
2017-07-24T07:33:04.570Z,58.00
2017-07-24T07:35:33.018Z,58.10
2017-07-24T07:38:00.672Z,57.60
2017-07-24T07:40:28.397Z,56.80
2017-07-24T07:42:56.058Z,57.50
2017-07-24T07:45:23.737Z,58.70
2017-07-24T07:47:51.396Z,58.80
2017-07-24T07:50:19.068Z,59.30
2017-07-24T07:52:46.766Z,59.30
2017-07-24T07:55:14.399Z,58.50
2017-07-24T07:57:42.256Z,58.20
2017-07-24T08:00:09.911Z,58.30
2017-07-24T08:02:37.893Z,58.90
2017-07-24T08:05:05.564Z,59.40
2017-07-24T08:07:33.220Z,59.30
2017-07-24T08:10:00.891Z,59.20
2017-07-24T08:12:28.531Z,59.40
2017-07-24T08:14:56.201Z,59.50
2017-07-24T08:17:23.869Z,59.40
2017-07-24T08:19:51.549Z,59.20
2017-07-24T08:22:19.198Z,59.10
2017-07-24T08:24:47.181Z,59.30
2017-07-24T08:27:14.844Z,59.00
2017-07-24T08:29:42.534Z,59.40
2017-07-24T08:32:10.190Z,59.10
2017-07-24T08:34:37.964Z,59.40
2017-07-24T08:37:06.409Z,60.00
2017-07-24T08:39:34.062Z,60.00
2017-07-24T08:42:01.743Z,59.60
2017-07-24T08:44:29.377Z,59.80
2017-07-24T08:46:57.077Z,59.70
2017-07-24T08:49:24.752Z,58.30
2017-07-24T08:51:53.542Z,58.30
2017-07-24T08:54:22.000Z,57.90
2017-07-24T08:56:49.652Z,57.90
2017-07-24T08:59:17.675Z,58.00
2017-07-24T09:01:45.344Z,58.70
2017-07-24T09:04:13.234Z,58.30
2017-07-24T09:06:41.266Z,58.50
2017-07-24T09:09:09.064Z,59.00
2017-07-24T09:11:36.945Z,59.40
2017-07-24T09:14:05.038Z,59.60
2017-07-24T09:16:32.841Z,59.10
2017-07-24T09:19:00.650Z,59.80
2017-07-24T09:21:28.317Z,59.70
2017-07-24T09:23:56.079Z,59.90
2017-07-24T09:26:23.748Z,60.30
2017-07-24T09:28:51.397Z,60.00
2017-07-24T09:31:19.082Z,60.30
2017-07-24T09:33:46.869Z,61.10
2017-07-24T09:36:14.599Z,60.60
2017-07-24T09:38:42.352Z,60.30
2017-07-24T09:41:10.012Z,59.90
2017-07-24T09:43:37.684Z,59.80
2017-07-24T09:46:05.330Z,60.50
2017-07-24T09:48:33.052Z,60.30
2017-07-24T09:51:01.512Z,59.30
2017-07-24T09:53:29.200Z,59.20
2017-07-24T09:55:56.879Z,59.00
2017-07-24T09:58:24.929Z,59.10
2017-07-24T10:00:53.397Z,60.30
2017-07-24T10:03:21.829Z,59.40
2017-07-24T10:05:49.878Z,59.40
2017-07-24T10:08:17.535Z,59.70
2017-07-24T10:10:45.191Z,60.70
2017-07-24T10:13:12.900Z,59.40
2017-07-24T10:15:40.585Z,59.50
2017-07-24T10:18:08.257Z,60.00
2017-07-24T10:20:37.081Z,59.90
2017-07-24T10:23:04.747Z,59.90
2017-07-24T10:25:32.401Z,59.10
2017-07-24T10:28:00.084Z,60.00
2017-07-24T10:30:27.735Z,60.20
2017-07-24T10:32:55.437Z,60.30
2017-07-24T10:35:23.096Z,59.70
2017-07-24T10:37:50.784Z,60.00
2017-07-24T10:40:18.447Z,59.40
2017-07-24T10:42:47.161Z,59.40
2017-07-24T10:45:14.794Z,59.40
2017-07-24T10:47:43.514Z,59.70
2017-07-24T10:50:11.180Z,59.60
2017-07-24T10:52:38.851Z,59.50
2017-07-24T10:55:06.540Z,61.00
2017-07-24T10:57:34.214Z,60.50
2017-07-24T11:00:01.918Z,60.80
2017-07-24T11:02:29.615Z,61.00
2017-07-24T11:04:57.636Z,60.90
2017-07-24T11:07:25.280Z,60.70
2017-07-24T11:09:52.923Z,60.60
2017-07-24T11:12:20.670Z,61.70
2017-07-24T11:14:48.322Z,61.70
2017-07-24T11:17:16.035Z,63.20
2017-07-24T11:19:44.481Z,62.60
2017-07-24T11:22:12.157Z,62.40
2017-07-24T11:24:39.809Z,62.60
2017-07-24T11:27:10.531Z,63.00
2017-07-24T11:29:38.246Z,62.20
2017-07-24T11:32:05.885Z,62.30
2017-07-24T11:34:33.888Z,63.50
2017-07-24T11:37:01.554Z,62.40
2017-07-24T11:39:29.223Z,63.20
2017-07-24T11:41:56.901Z,62.70
2017-07-24T11:44:24.571Z,63.00
2017-07-24T11:46:52.352Z,63.70
2017-07-24T11:49:20.105Z,65.00
2017-07-24T11:51:47.753Z,64.60
2017-07-24T11:54:15.424Z,65.50
2017-07-24T11:56:43.097Z,66.30
2017-07-24T11:59:10.759Z,67.10
2017-07-24T12:01:38.420Z,64.50
2017-07-24T12:04:06.084Z,66.70
2017-07-24T12:06:34.067Z,67.00
2017-07-24T12:09:01.716Z,67.10
2017-07-24T12:11:29.366Z,66.80
2017-07-24T12:13:57.069Z,67.60
2017-07-24T12:16:25.476Z,67.80
2017-07-24T12:18:53.131Z,67.70
2017-07-24T12:21:20.770Z,67.00
2017-07-24T12:23:49.198Z,68.70
2017-07-24T12:26:16.850Z,68.50
2017-07-24T12:28:44.844Z,69.10
2017-07-24T12:31:12.521Z,69.20
2017-07-24T12:33:40.347Z,68.40
2017-07-24T12:36:08.112Z,68.20
2017-07-24T12:38:36.480Z,69.70
2017-07-24T12:41:04.764Z,63.30
2017-07-24T12:43:32.408Z,67.10
2017-07-24T12:46:00.100Z,68.60
2017-07-24T12:48:27.821Z,69.80
2017-07-24T12:50:56.297Z,70.90
2017-07-24T12:53:23.946Z,70.90
2017-07-24T12:55:52.708Z,70.10
2017-07-24T12:58:20.365Z,70.10
2017-07-24T13:00:48.038Z,66.80
2017-07-24T13:03:15.720Z,69.30
2017-07-24T13:05:43.353Z,64.60
2017-07-24T13:08:11.023Z,63.50
2017-07-24T13:10:38.698Z,62.70
2017-07-24T13:13:06.699Z,63.40
2017-07-24T13:15:34.405Z,65.20
2017-07-24T13:18:02.056Z,66.70
2017-07-24T13:20:29.750Z,65.40
2017-07-24T13:22:57.497Z,64.10
2017-07-24T13:25:25.176Z,65.50
2017-07-24T13:27:52.803Z,65.80
2017-07-24T13:30:20.476Z,65.40
2017-07-24T13:32:48.168Z,63.90
2017-07-24T13:35:16.182Z,63.70
2017-07-24T13:37:43.907Z,63.50
2017-07-24T13:40:11.573Z,65.40
2017-07-24T13:42:39.269Z,64.90
2017-07-24T13:45:07.242Z,62.20
2017-07-24T13:47:35.156Z,62.00
2017-07-24T13:50:02.846Z,61.50
2017-07-24T13:52:31.682Z,61.20
2017-07-24T13:54:59.860Z,61.10
2017-07-24T13:57:27.509Z,62.10
2017-07-24T13:59:55.375Z,62.20
2017-07-24T14:02:23.039Z,62.40
2017-07-24T14:04:50.798Z,61.60
2017-07-24T14:07:18.454Z,60.40
2017-07-24T14:09:46.524Z,61.60
2017-07-24T14:12:14.486Z,63.10
2017-07-24T14:14:42.154Z,61.40
2017-07-24T14:17:10.216Z,61.60
2017-07-24T14:19:37.877Z,60.50
2017-07-24T14:22:05.554Z,62.20
2017-07-24T14:24:33.720Z,61.40
2017-07-24T14:40:01.590Z,60.60
2017-07-24T14:42:29.267Z,63.80
2017-07-24T14:44:56.951Z,63.90
2017-07-24T14:47:24.747Z,63.80
2017-07-24T14:49:53.165Z,61.50
2017-07-24T14:52:21.283Z,61.40
2017-07-24T14:54:49.857Z,61.20
2017-07-24T14:57:17.519Z,61.20
2017-07-24T14:59:46.716Z,62.60
2017-07-24T15:02:17.010Z,61.70
2017-07-24T15:04:44.756Z,61.60
2017-07-24T15:07:12.550Z,59.80
2017-07-24T15:09:40.238Z,59.80
2017-07-24T15:12:07.959Z,60.90
2017-07-24T15:14:35.638Z,59.10
2017-07-24T15:19:25.061Z,59.10
2017-07-24T15:21:53.481Z,58.70
2017-07-24T15:24:21.156Z,58.60
2017-07-24T15:26:48.818Z,58.40
2017-07-24T15:29:16.865Z,57.90
2017-07-24T15:31:44.586Z,55.70
2017-07-24T15:34:12.565Z,55.40
2017-07-24T15:36:41.030Z,57.30
2017-07-24T15:39:08.705Z,57.30
2017-07-24T15:41:36.366Z,56.80
2017-07-24T15:44:04.053Z,55.70
2017-07-24T15:46:31.769Z,55.70
2017-07-24T15:48:59.444Z,56.60
2017-07-24T15:51:27.226Z,57.10
2017-07-24T15:53:56.077Z,56.00
2017-07-24T15:56:24.574Z,54.60
2017-07-24T15:58:52.355Z,54.60
2017-07-24T16:01:20.060Z,53.70
2017-07-24T16:03:48.179Z,54.70
2017-07-24T16:06:16.734Z,54.20
2017-07-24T16:08:44.389Z,54.10
2017-07-24T16:11:12.189Z,53.60
2017-07-24T16:13:39.849Z,54.10
2017-07-24T16:16:07.587Z,55.00
2017-07-24T16:18:35.461Z,54.00
2017-07-24T16:21:03.155Z,54.60
2017-07-24T16:23:30.945Z,54.10
2017-07-24T16:25:58.702Z,54.50
2017-07-24T16:28:27.182Z,53.90
2017-07-24T16:30:55.658Z,53.90
2017-07-24T16:33:23.423Z,53.80
2017-07-24T16:35:51.862Z,53.90
2017-07-24T16:38:19.600Z,53.90
2017-07-24T16:40:47.280Z,53.60
2017-07-24T16:43:14.928Z,53.40
2017-07-24T16:45:42.632Z,53.20
2017-07-24T16:48:10.299Z,53.90
2017-07-24T16:50:38.212Z,53.80
2017-07-24T16:53:05.858Z,53.60
2017-07-24T16:55:33.630Z,54.20
2017-07-24T16:58:01.283Z,53.80
2017-07-24T17:00:28.998Z,53.60
2017-07-24T17:02:56.726Z,54.10
2017-07-24T17:05:24.399Z,54.70
2017-07-24T17:07:52.103Z,54.70
2017-07-24T17:10:19.806Z,54.80
2017-07-24T17:12:47.521Z,53.90
2017-07-24T17:15:15.210Z,53.40
2017-07-24T17:17:43.638Z,52.20
2017-07-24T17:20:11.494Z,52.20
2017-07-24T17:22:39.157Z,51.60
2017-07-24T17:25:06.828Z,51.80
2017-07-24T17:27:34.485Z,52.10
2017-07-24T17:30:02.198Z,51.90
2017-07-24T17:32:30.637Z,51.80
2017-07-24T17:34:58.759Z,51.80
2017-07-24T17:37:27.221Z,51.70
2017-07-24T17:39:54.906Z,51.60
2017-07-24T17:42:23.634Z,51.90
2017-07-24T17:44:51.314Z,51.80
2017-07-24T17:47:18.991Z,52.20
2017-07-24T17:49:47.146Z,52.00
2017-07-24T17:52:14.887Z,51.90
2017-07-24T17:54:42.600Z,51.60
2017-07-24T17:57:10.696Z,51.30
2017-07-24T17:59:38.368Z,51.60
2017-07-24T18:02:06.054Z,51.60
2017-07-24T18:04:33.767Z,52.30
2017-07-24T18:07:02.210Z,52.70
2017-07-24T18:09:29.910Z,52.70
2017-07-24T18:11:58.990Z,52.50
2017-07-24T18:14:26.781Z,52.30
2017-07-24T18:16:54.442Z,52.70
2017-07-24T18:19:22.880Z,53.50
2017-07-24T18:21:51.185Z,53.40
2017-07-24T18:24:18.890Z,53.00
2017-07-24T18:26:46.922Z,53.00
2017-07-24T18:29:16.115Z,52.60
2017-07-24T18:31:44.572Z,52.60
2017-07-24T18:34:12.383Z,52.60
2017-07-24T18:36:40.046Z,52.50
2017-07-24T18:39:07.732Z,52.70
2017-07-24T18:41:35.582Z,52.50
2017-07-24T18:44:03.264Z,52.40
2017-07-24T18:46:30.969Z,52.40
2017-07-24T18:48:58.863Z,52.60
2017-07-24T18:51:27.347Z,52.50
2017-07-24T18:53:55.041Z,52.50
2017-07-24T18:56:23.061Z,52.70
2017-07-24T18:58:51.501Z,53.00
2017-07-24T19:01:19.177Z,52.90
2017-07-24T19:03:46.896Z,53.10
2017-07-24T19:06:14.569Z,53.10
2017-07-24T19:08:42.261Z,53.10
2017-07-24T19:11:10.146Z,53.20
2017-07-24T19:13:37.856Z,53.60
2017-07-24T19:16:06.237Z,53.80
2017-07-24T19:18:34.012Z,54.00
2017-07-24T19:21:01.719Z,53.90
2017-07-24T19:23:29.422Z,53.90
2017-07-24T19:25:57.107Z,54.10
2017-07-24T19:28:24.781Z,54.50
2017-07-24T19:30:52.556Z,55.00
2017-07-24T19:33:20.900Z,55.70
2017-07-24T19:35:48.845Z,55.70
2017-07-24T19:38:16.501Z,55.30
2017-07-24T19:40:44.289Z,55.40
2017-07-24T19:43:11.974Z,55.70
2017-07-24T19:45:40.402Z,55.70
2017-07-24T19:48:09.008Z,55.60
2017-07-24T19:50:36.697Z,55.60
2017-07-24T19:53:04.356Z,55.70
2017-07-24T19:55:32.193Z,56.60
2017-07-24T19:57:59.842Z,57.40
2017-07-24T20:00:28.464Z,55.80
2017-07-24T20:02:56.493Z,55.80
2017-07-24T20:05:24.927Z,54.60
2017-07-24T20:07:52.587Z,54.40
2017-07-24T20:10:20.261Z,54.50
2017-07-24T20:12:47.931Z,54.80
2017-07-24T20:15:15.621Z,55.00
2017-07-24T20:17:43.415Z,55.50
2017-07-24T20:20:11.297Z,56.20
2017-07-24T20:22:38.998Z,56.70
2017-07-24T20:25:06.634Z,56.80
2017-07-24T20:27:34.441Z,57.40
2017-07-24T20:30:02.859Z,59.10
2017-07-24T20:32:30.568Z,59.10
2017-07-24T20:34:58.720Z,59.20
2017-07-24T20:37:26.417Z,59.20
2017-07-24T20:39:54.855Z,59.20
2017-07-24T20:42:22.657Z,59.10
2017-07-24T20:44:51.089Z,59.20
2017-07-24T20:47:18.781Z,59.20
2017-07-24T20:49:46.723Z,59.00
2017-07-24T20:52:14.403Z,58.70
2017-07-24T20:54:42.059Z,58.90
2017-07-24T20:57:09.867Z,59.50
2017-07-24T20:59:38.285Z,59.60
2017-07-24T21:02:05.988Z,59.60
2017-07-24T21:04:33.994Z,59.70
2017-07-24T21:07:01.693Z,60.00
2017-07-24T21:09:29.378Z,60.70
2017-07-24T21:11:57.380Z,60.40
2017-07-24T21:14:25.090Z,60.20
2017-07-24T21:16:52.777Z,60.70
2017-07-24T21:19:20.770Z,60.50
2017-07-24T21:21:48.457Z,59.80
2017-07-24T21:24:16.093Z,59.30
2017-07-24T21:26:44.614Z,59.50
2017-07-24T21:29:12.270Z,59.50
2017-07-24T21:31:40.266Z,59.80
2017-07-24T21:34:08.749Z,59.80
2017-07-24T21:36:37.152Z,59.90
2017-07-24T21:39:05.589Z,59.80
2017-07-24T21:41:33.361Z,59.80
2017-07-24T21:44:01.056Z,59.90
2017-07-24T21:46:29.482Z,61.70
2017-07-24T21:48:57.273Z,61.50
2017-07-24T21:51:25.107Z,61.50
2017-07-24T21:53:52.823Z,60.70
2017-07-24T21:56:20.725Z,60.10
2017-07-24T21:58:48.366Z,59.70
2017-07-24T22:01:16.781Z,59.70
2017-07-24T22:03:44.664Z,59.60
2017-07-24T22:06:12.335Z,59.60
2017-07-24T22:08:39.993Z,59.50
2017-07-24T22:11:07.779Z,60.20
2017-07-24T22:13:35.412Z,60.00
2017-07-24T22:16:03.170Z,60.00
2017-07-24T22:18:31.201Z,60.50
2017-07-24T22:20:58.967Z,60.50
2017-07-24T22:23:27.470Z,60.00
2017-07-24T22:25:55.532Z,60.00
2017-07-24T22:28:23.225Z,60.00
